Time;durP1;ratioP1;P1;durP2;ratioP2;P2;SDS_P1;SDS_P2;PMS_P1;PMS_P2;Temp;Humidity;BMP_temperature;BMP_pressure;BME280_temperature;BME280_humidity;BME280_pressure;Samples;Min_cycle;Max_cycle;Signal;HPM_P1;HPM_P2
2021/11/18 00:02:20;;;;;;;8.93;4.50;;;;;;;8.96;92.19;100174.16;5001927;28;20127;-69
2021/11/18 00:05:06;;;;;;;;;;;;;;;8.94;91.81;100170.03;5017129;28;20100;-69
2021/11/18 00:07:52;;;;;;;6.47;4.28;;;;;;;8.96;91.36;100176.75;5015698;28;20381;-68
2021/11/18 00:10:42;;;;;;;6.03;3.97;;;;;;;8.96;91.43;100187.06;5001842;28;20125;-68
2021/11/18 00:13:32;;;;;;;6.30;4.63;;;;;;;8.89;91.70;100185.00;5001309;28;20045;-69
2021/11/18 00:16:16;;;;;;;8.15;4.60;;;;;;;8.78;92.62;100192.56;5001647;28;20147;-69
2021/11/18 00:19:01;;;;;;;7.57;4.50;;;;;;;8.90;92.33;100189.22;5001852;28;20048;-69
2021/11/18 00:21:44;;;;;;;8.02;4.50;;;;;;;8.87;91.47;100197.97;5001398;28;20415;-69
2021/11/18 00:24:29;;;;;;;8.05;4.68;;;;;;;8.80;91.46;100188.97;5001530;28;20044;-69
2021/11/18 00:27:12;;;;;;;9.00;4.55;;;;;;;8.87;91.03;100186.84;5001548;28;20049;-69
2021/11/18 00:29:56;;;;;;;8.82;5.00;;;;;;;8.82;91.72;100181.13;5001468;28;20137;-69
2021/11/18 00:32:41;;;;;;;6.28;4.30;;;;;;;8.92;91.20;100188.22;5001352;28;20099;-69
2021/11/18 00:35:27;;;;;;;8.35;4.57;;;;;;;8.83;91.54;100182.78;4987152;28;20107;-68
2021/11/18 00:38:12;;;;;;;7.85;4.60;;;;;;;8.87;91.12;100173.94;5001009;28;20061;-69
2021/11/18 00:40:58;;;;;;;7.20;4.47;;;;;;;8.81;91.19;100182.06;5001175;28;20533;-69
2021/11/18 00:43:43;;;;;;;7.03;4.20;;;;;;;8.79;92.06;100177.00;5001060;28;20049;-68
2021/11/18 00:46:28;;;;;;;5.63;4.38;;;;;;;8.67;92.50;100180.31;5000989;28;20048;-68
2021/11/18 00:49:12;;;;;;;6.18;4.40;;;;;;;8.76;92.28;100173.78;5001002;28;20100;-69
2021/11/18 00:51:56;;;;;;;6.50;4.15;;;;;;;8.65;92.81;100171.84;5001289;28;20442;-69
2021/11/18 00:54:41;;;;;;;6.43;4.53;;;;;;;8.63;92.76;100168.56;4987171;28;20510;-69
2021/11/18 00:57:24;;;;;;;5.78;3.40;;;;;;;8.54;93.03;100170.88;5000723;28;20053;-69
2021/11/18 01:00:16;;;;;;;6.93;4.35;;;;;;;8.66;92.72;100170.13;5000850;28;20084;-69
2021/11/18 01:03:00;;;;;;;6.55;4.63;;;;;;;8.61;93.06;100179.88;5015341;28;20503;-69
2021/11/18 01:05:46;;;;;;;9.07;4.03;;;;;;;8.63;92.62;100185.78;5000955;28;20104;-69
2021/11/18 01:08:30;;;;;;;6.18;4.00;;;;;;;8.57;93.21;100193.91;5000554;28;20052;-69
2021/11/18 01:11:33;;;;;;;6.70;4.57;;;;;;;8.70;93.00;100184.47;5000439;28;20052;-69
2021/11/18 01:14:19;;;;;;;8.17;4.63;;;;;;;8.74;92.82;100189.34;5000294;28;20044;-69
2021/11/18 01:17:03;;;;;;;9.07;4.95;;;;;;;8.76;92.10;100205.56;5000322;28;20204;-68
2021/11/18 01:19:47;;;;;;;8.15;4.68;;;;;;;8.72;92.39;100188.63;5000288;28;20115;-66
2021/11/18 01:22:31;;;;;;;9.23;4.50;;;;;;;8.65;92.39;100197.66;5014302;28;20127;-68
2021/11/18 01:25:15;;;;;;;;;;;;;;;8.77;92.52;100207.22;5000532;28;20099;-68
2021/11/18 01:27:59;;;;;;;6.40;4.60;;;;;;;8.79;92.84;100220.03;5015464;28;20347;-68
2021/11/18 01:30:44;;;;;;;7.15;4.93;;;;;;;8.85;92.24;100207.56;5000408;28;20450;-69
2021/11/18 01:33:29;;;;;;;8.43;5.75;;;;;;;8.81;92.20;100200.13;5014657;28;20053;-69
2021/11/18 01:36:13;;;;;;;7.60;4.78;;;;;;;8.83;92.20;100203.44;5000009;28;20049;-69
2021/11/18 01:38:56;;;;;;;10.82;5.25;;;;;;;8.80;92.12;100207.06;5000527;28;20084;-69
2021/11/18 01:41:42;;;;;;;7.10;4.80;;;;;;;8.93;91.60;100207.09;4999937;28;20064;-69
2021/11/18 01:44:33;;;;;;;12.48;5.25;;;;;;;8.88;92.00;100209.16;5013673;28;20124;-69
2021/11/18 01:47:18;;;;;;;6.03;4.60;;;;;;;8.82;92.44;100194.03;4999862;28;20053;-69
2021/11/18 01:50:03;;;;;;;8.48;5.53;;;;;;;8.74;92.33;100189.34;5000030;28;20053;-68
2021/11/18 01:52:48;;;;;;;8.20;5.03;;;;;;;8.69;93.75;100195.72;4999969;28;20080;-67
2021/11/18 01:55:33;;;;;;;8.25;5.28;;;;;;;8.66;93.71;100201.91;5000147;28;20119;-69
2021/11/18 01:58:18;;;;;;;7.32;5.28;;;;;;;8.79;93.58;100204.56;4999810;28;20056;-69
2021/11/18 02:01:05;;;;;;;8.48;5.78;;;;;;;8.69;93.90;100224.94;5014915;28;20462;-66
2021/11/18 02:03:49;;;;;;;12.82;6.40;;;;;;;8.72;94.31;100214.44;4999359;28;20410;-68
2021/11/18 02:06:37;;;;;;;9.35;5.43;;;;;;;8.79;93.48;100205.41;4999463;28;20139;-68
2021/11/18 02:09:24;;;;;;;6.43;5.03;;;;;;;8.70;94.62;100207.69;4999339;28;20510;-69
2021/11/18 02:12:19;;;;;;;10.77;6.43;;;;;;;8.65;94.69;100213.13;4999799;28;20103;-68
2021/11/18 02:15:04;;;;;;;8.02;5.65;;;;;;;8.78;93.71;100218.38;4998761;28;20407;-69
2021/11/18 02:17:48;;;;;;;7.50;4.90;;;;;;;8.66;94.13;100224.31;4999525;28;20103;-69
2021/11/18 02:20:34;;;;;;;8.02;5.85;;;;;;;8.82;93.89;100231.00;4999398;28;20124;-66
2021/11/18 02:23:24;;;;;;;8.70;5.50;;;;;;;8.86;93.56;100231.66;4999569;28;20521;-69
2021/11/18 02:26:08;;;;;;;9.00;5.07;;;;;;;8.68;94.63;100227.63;4999693;28;20502;-68
2021/11/18 02:28:55;;;;;;;9.48;5.45;;;;;;;8.72;94.54;100227.34;5013212;28;20630;-69
2021/11/18 02:32:01;;;;;;;7.88;5.50;;;;;;;8.72;94.69;100224.75;4999204;28;20630;-69
2021/11/18 02:34:51;;;;;;;9.18;6.20;;;;;;;8.79;94.60;100225.19;4998770;28;20474;-68
2021/11/18 02:37:35;;;;;;;8.63;5.88;;;;;;;8.69;95.05;100234.44;4999210;28;20418;-68
2021/11/18 02:40:20;;;;;;;9.07;5.40;;;;;;;8.86;94.52;100237.63;4999319;28;20587;-68
2021/11/18 02:43:05;;;;;;;9.90;6.32;;;;;;;8.80;94.88;100232.00;4999019;28;20091;-69
2021/11/18 02:45:51;;;;;;;10.82;5.68;;;;;;;8.77;95.19;100240.78;5012680;28;20057;-69
2021/11/18 02:48:36;;;;;;;8.00;6.47;;;;;;;8.80;95.31;100232.00;4998729;28;20076;-69
2021/11/18 02:51:21;;;;;;;8.93;5.47;;;;;;;8.67;95.89;100228.53;4998789;28;20044;-69
2021/11/18 02:54:06;;;;;;;10.88;6.28;;;;;;;8.60;96.94;100229.81;4998769;28;20081;-69
2021/11/18 02:56:52;;;;;;;8.65;6.10;;;;;;;8.61;97.38;100231.47;4999002;28;20052;-69
2021/11/18 02:59:37;;;;;;;11.32;6.80;;;;;;;8.63;96.78;100234.78;4999227;28;20052;-69
2021/11/18 03:02:22;;;;;;;9.85;6.60;;;;;;;8.63;97.04;100237.38;5013388;28;20049;-68
2021/11/18 03:05:07;;;;;;;10.07;6.25;;;;;;;8.69;97.09;100226.69;4998511;28;20618;-68
2021/11/18 03:07:52;;;;;;;10.70;6.65;;;;;;;8.65;97.30;100236.38;4998772;28;20125;-69
2021/11/18 03:10:36;;;;;;;11.15;7.50;;;;;;;8.62;97.86;100238.28;4998426;28;20053;-69
2021/11/18 03:13:23;;;;;;;9.88;6.55;;;;;;;8.67;97.33;100246.59;4998749;28;20056;-68
2021/11/18 03:16:08;;;;;;;11.45;7.03;;;;;;;8.71;97.34;100253.22;4998490;28;20092;-69
2021/11/18 03:18:52;;;;;;;12.70;6.38;;;;;;;8.68;97.49;100249.06;4998654;28;20049;-69
2021/11/18 03:21:36;;;;;;;12.05;7.18;;;;;;;8.70;97.82;100251.56;5012800;28;20045;-68
2021/11/18 03:24:20;;;;;;;10.30;7.38;;;;;;;8.61;98.74;100262.44;5013182;28;20048;-68
2021/11/18 03:27:05;;;;;;;11.73;7.65;;;;;;;8.60;98.90;100259.06;5002410;28;20049;-68
2021/11/18 03:29:49;;;;;;;12.15;8.00;;;;;;;8.62;99.50;100249.47;5017147;28;20120;-69
2021/11/18 03:32:33;;;;;;;12.77;7.90;;;;;;;8.58;99.84;100231.69;5017362;28;20049;-69
2021/11/18 03:35:18;;;;;;;13.63;8.20;;;;;;;8.61;100.00;100244.38;5002133;28;20053;-69
2021/11/18 03:38:03;;;;;;;14.75;8.80;;;;;;;8.63;100.00;100242.53;5017268;28;20104;-69
2021/11/18 03:40:50;;;;;;;15.68;8.18;;;;;;;8.63;99.78;100250.28;5002127;28;20133;-68
2021/11/18 03:43:44;;;;;;;12.02;7.57;;;;;;;8.63;99.95;100250.28;5016181;28;20087;-68
2021/11/18 03:46:32;;;;;;;15.98;9.00;;;;;;;8.66;100.00;100250.09;5002361;28;20068;-66
2021/11/18 03:49:16;;;;;;;14.75;8.68;;;;;;;8.61;100.00;100259.88;5001969;28;20045;-69
2021/11/18 03:52:02;;;;;;;15.43;8.90;;;;;;;8.70;100.00;100261.88;5001908;28;20195;-69
2021/11/18 03:54:46;;;;;;;15.43;8.00;;;;;;;8.71;100.00;100266.13;5001797;28;20092;-68
2021/11/18 03:57:30;;;;;;;12.70;8.20;;;;;;;8.66;100.00;100271.56;5002057;28;20453;-68
2021/11/18 04:00:22;;;;;;;12.98;8.50;;;;;;;8.62;100.00;100287.31;5001885;28;20053;-69
2021/11/18 04:03:08;;;;;;;13.05;7.90;;;;;;;8.63;100.00;100283.81;5002139;28;20052;-69
2021/11/18 04:05:52;;;;;;;20.05;8.35;;;;;;;8.65;100.00;100282.00;5001965;28;20053;-69
2021/11/18 04:08:36;;;;;;;15.45;8.00;;;;;;;8.61;100.00;100283.09;5016763;28;20176;-68
2021/11/18 04:11:20;;;;;;;12.73;8.18;;;;;;;8.56;100.00;100288.53;5001628;28;20518;-68
2021/11/18 04:14:04;;;;;;;16.35;8.70;;;;;;;8.62;99.99;100287.31;5016611;28;20084;-68
2021/11/18 04:16:48;;;;;;;12.80;8.00;;;;;;;8.55;100.00;100280.91;5001723;28;20598;-69
2021/11/18 04:19:32;;;;;;;15.45;8.20;;;;;;;8.65;99.99;100277.66;5001754;28;20129;-68
2021/11/18 04:22:16;;;;;;;14.20;8.88;;;;;;;8.58;100.00;100283.28;5001475;28;20069;-69
2021/11/18 04:25:01;;;;;;;15.93;8.52;;;;;;;8.49;100.00;100284.66;5001554;28;20125;-69
2021/11/18 04:27:45;;;;;;;12.43;7.45;;;;;;;8.54;100.00;100274.06;5001657;28;20103;-68
2021/11/18 04:30:43;;;;;;;14.10;8.85;;;;;;;8.67;100.00;100270.63;5001673;28;20045;-68
2021/11/18 04:33:32;;;;;;;13.93;8.32;;;;;;;8.54;100.00;100277.47;5001381;28;20184;-68
2021/11/18 04:36:05;;;;;;;16.50;8.52;;;;;;;8.53;100.00;100278.41;5053750;22;20084;-67
2021/11/18 04:38:52;;;;;;;11.77;7.70;;;;;;;8.68;99.30;100289.53;5020877;28;20048;-66
2021/11/18 04:41:36;;;;;;;12.45;8.25;;;;;;;8.63;99.19;100287.25;5035649;28;20137;-67
2021/11/18 04:44:21;;;;;;;13.50;8.20;;;;;;;8.61;99.04;100283.94;5020521;28;20044;-66
2021/11/18 04:47:12;;;;;;;11.77;7.22;;;;;;;8.53;99.29;100293.88;5020793;28;20095;-66
2021/11/18 04:49:56;;;;;;;10.63;7.32;;;;;;;8.58;99.15;100298.75;5021248;28;20043;-66
2021/11/18 04:52:41;;;;;;;10.90;7.40;;;;;;;8.61;98.64;100296.81;5020348;28;20080;-66
2021/11/18 04:55:27;;;;;;;11.23;7.30;;;;;;;8.62;98.53;100289.91;5020451;28;20052;-66
2021/11/18 04:58:12;;;;;;;13.00;8.00;;;;;;;8.49;99.75;100284.66;5006942;28;20048;-66
2021/11/18 05:00:57;;;;;;;15.77;8.15;;;;;;;8.48;99.40;100287.31;5020372;28;20052;-67
2021/11/18 05:03:42;;;;;;;12.75;7.30;;;;;;;8.46;99.66;100289.19;5006621;28;20124;-66
2021/11/18 05:06:26;;;;;;;11.55;7.30;;;;;;;8.44;99.80;100288.44;5020473;28;20125;-66
2021/11/18 05:09:10;;;;;;;9.85;7.03;;;;;;;8.43;99.94;100295.34;5035374;28;20203;-66
2021/11/18 05:11:54;;;;;;;12.43;7.32;;;;;;;8.44;99.57;100297.00;5035141;28;20048;-66
2021/11/18 05:14:38;;;;;;;13.60;7.68;;;;;;;8.48;98.89;100302.81;5020233;28;20502;-67
2021/11/18 05:17:22;;;;;;;12.52;7.57;;;;;;;8.42;99.37;100303.16;5035081;28;20413;-67
2021/11/18 05:20:08;;;;;;;13.85;7.90;;;;;;;8.42;99.28;100298.84;5035146;28;20118;-68
2021/11/18 05:22:53;;;;;;;11.93;7.78;;;;;;;8.45;98.83;100303.00;5019879;28;20229;-67
2021/11/18 05:25:37;;;;;;;13.68;7.65;;;;;;;8.41;98.80;100315.25;5034698;28;20103;-67
2021/11/18 05:28:22;;;;;;;11.15;7.68;;;;;;;8.39;99.36;100311.09;5034997;28;20057;-67
2021/11/18 05:31:06;;;;;;;12.00;6.60;;;;;;;8.33;99.63;100319.16;5020202;28;20091;-67
2021/11/18 05:33:50;;;;;;;13.25;7.88;;;;;;;8.35;99.46;100314.78;5019715;28;20052;-68
2021/11/18 05:36:34;;;;;;;14.88;8.48;;;;;;;8.29;100.00;100320.28;5019613;28;20040;-66
2021/11/18 05:39:18;;;;;;;11.98;7.78;;;;;;;8.25;100.00;100317.03;5019907;28;20169;-68
2021/11/18 05:42:03;;;;;;;13.43;7.93;;;;;;;8.25;100.00;100319.63;5034815;28;20429;-68
2021/11/18 05:44:49;;;;;;;11.20;7.88;;;;;;;8.29;100.00;100315.13;5019538;28;20048;-67
2021/11/18 05:47:33;;;;;;;12.85;7.10;;;;;;;8.22;100.00;100308.66;5019623;28;20076;-67
2021/11/18 05:50:17;;;;;;;12.57;7.55;;;;;;;8.18;100.00;100315.75;5019665;28;20053;-68
2021/11/18 05:53:01;;;;;;;10.43;7.80;;;;;;;8.19;100.00;100316.56;5019492;28;20088;-66
2021/11/18 05:55:46;;;;;;;11.02;7.60;;;;;;;8.29;99.71;100315.97;5034455;28;20129;-67
2021/11/18 05:58:31;;;;;;;11.02;7.28;;;;;;;8.26;99.68;100312.72;5019208;28;20067;-67
2021/11/18 06:01:16;;;;;;;13.50;8.27;;;;;;;8.15;100.00;100315.88;5019106;28;20052;-65
2021/11/18 06:04:00;;;;;;;14.93;7.88;;;;;;;8.11;100.00;100313.56;5019103;28;20092;-66
2021/11/18 06:06:45;;;;;;;12.27;8.00;;;;;;;8.02;100.00;100316.69;5019344;28;20477;-66
2021/11/18 06:09:29;;;;;;;12.55;7.60;;;;;;;7.96;100.00;100314.47;5034244;28;20051;-67
2021/11/18 06:12:13;;;;;;;;;;;;;;;7.92;100.00;100318.13;5019323;28;20513;-67
2021/11/18 06:14:57;;;;;;;14.47;8.03;;;;;;;7.91;100.00;100317.31;5033845;28;19923;-67
2021/11/18 06:17:41;;;;;;;12.20;7.93;;;;;;;7.94;100.00;100324.03;5034031;28;20278;-67
2021/11/18 06:20:26;;;;;;;17.92;8.02;;;;;;;7.98;100.00;100333.25;5033814;28;20071;-67
2021/11/18 06:23:11;;;;;;;11.70;7.78;;;;;;;7.93;100.00;100330.94;5018704;28;20060;-66
2021/11/18 06:25:55;;;;;;;13.30;8.43;;;;;;;7.88;100.00;100337.25;5018886;28;20452;-67
2021/11/18 06:28:40;;;;;;;13.75;8.80;;;;;;;7.90;100.00;100341.41;5018937;28;20502;-66
2021/11/18 06:31:25;;;;;;;14.20;8.07;;;;;;;7.99;100.00;100342.63;5033730;28;20084;-66
2021/11/18 06:34:08;;;;;;;14.43;7.82;;;;;;;7.98;100.00;100353.88;5018553;28;20076;-66
2021/11/18 06:36:52;;;;;;;;;;;;;;;7.99;100.00;100342.63;5019050;28;20572;-67
2021/11/18 06:39:38;;;;;;;16.70;7.87;;;;;;;7.88;100.00;100348.41;5018750;28;20006;-66
2021/11/18 06:42:22;;;;;;;11.55;8.00;;;;;;;7.94;100.00;100347.25;5004609;28;20509;-66
2021/11/18 06:45:08;;;;;;;12.85;8.05;;;;;;;7.86;100.00;100345.06;5033450;28;20132;-66
2021/11/18 06:47:53;;;;;;;13.48;8.20;;;;;;;7.77;100.00;100347.34;5018321;28;20426;-66
2021/11/18 06:50:37;;;;;;;14.20;8.73;;;;;;;7.80;100.00;100352.31;5018547;28;20044;-66
2021/11/18 06:53:22;;;;;;;13.63;9.13;;;;;;;7.76;100.00;100356.00;5018422;28;20099;-66
2021/11/18 06:56:07;;;;;;;12.55;8.40;;;;;;;7.86;100.00;100354.56;5018578;28;20049;-66
2021/11/18 06:58:52;;;;;;;15.27;9.50;;;;;;;7.74;100.00;100350.09;5033702;28;20048;-66
2021/11/18 07:01:36;;;;;;;12.90;8.40;;;;;;;7.74;100.00;100353.50;5018200;28;20406;-65
2021/11/18 07:04:20;;;;;;;17.23;9.30;;;;;;;7.77;100.00;100362.81;5018415;28;20099;-66
2021/11/18 07:07:05;;;;;;;13.27;8.52;;;;;;;7.84;100.00;100356.41;5033114;28;20051;-70
2021/11/18 07:09:49;;;;;;;14.57;9.80;;;;;;;7.85;100.00;100368.38;5004870;28;20083;-70
2021/11/18 07:12:33;;;;;;;15.93;9.45;;;;;;;7.94;100.00;100373.00;5004435;28;20437;-69
2021/11/18 07:15:16;;;;;;;13.68;9.18;;;;;;;7.93;100.00;100361.03;5018008;28;20056;-70
2021/11/18 07:18:00;;;;;;;14.23;9.07;;;;;;;8.09;100.00;100382.44;5033104;28;20131;-70
2021/11/18 07:20:45;;;;;;;15.68;9.07;;;;;;;8.17;100.00;100388.00;5018640;28;20057;-70
2021/11/18 07:23:30;;;;;;;17.58;9.40;;;;;;;8.28;100.00;100396.84;5018339;28;20040;-70
2021/11/18 07:26:14;;;;;;;15.13;9.63;;;;;;;8.32;100.00;100400.03;5033276;28;20049;-70
2021/11/18 07:28:58;;;;;;;12.93;7.75;;;;;;;8.28;100.00;100399.41;5018421;28;20060;-69
2021/11/18 07:31:43;;;;;;;15.48;9.35;;;;;;;8.34;100.00;100403.38;5018560;28;20071;-68
2021/11/18 07:34:26;;;;;;;;;;;;;;;8.51;100.00;100403.22;5018267;28;20053;-70
2021/11/18 07:37:10;;;;;;;11.83;7.93;;;;;;;8.44;100.00;100404.53;5018237;28;19920;-69
2021/11/18 07:39:54;;;;;;;;;;;;;;;8.45;100.00;100401.84;5018416;28;20136;-70
2021/11/18 07:42:39;;;;;;;12.68;8.50;;;;;;;8.58;100.00;100401.97;5004238;28;19920;-70
2021/11/18 07:45:25;;;;;;;12.10;7.72;;;;;;;8.56;100.00;100404.63;5018144;28;20048;-68
2021/11/18 07:48:09;;;;;;;13.85;7.60;;;;;;;8.63;100.00;100415.41;5017922;28;20084;-69
2021/11/18 07:50:53;;;;;;;15.02;8.95;;;;;;;8.75;100.00;100419.88;5033067;28;20103;-70
2021/11/18 07:53:39;;;;;;;14.63;8.15;;;;;;;8.84;99.97;100427.91;5032967;28;20139;-70
2021/11/18 07:56:24;;;;;;;14.18;8.48;;;;;;;8.79;100.00;100429.09;5017855;28;20045;-70
2021/11/18 07:59:09;;;;;;;12.52;7.88;;;;;;;8.83;99.28;100427.97;5004344;28;20244;-70
2021/11/18 08:01:53;;;;;;;13.95;8.90;;;;;;;8.88;99.18;100420.81;5017973;28;20083;-70
2021/11/18 08:04:37;;;;;;;10.07;7.05;;;;;;;8.81;98.61;100424.66;5018033;28;20133;-70
2021/11/18 08:07:21;;;;;;;15.40;9.10;;;;;;;8.95;98.23;100425.50;5017819;28;20103;-70
2021/11/18 08:10:06;;;;;;;10.05;7.80;;;;;;;9.10;97.38;100428.94;5032596;28;20099;-69
2021/11/18 08:12:50;;;;;;;13.50;8.27;;;;;;;9.04;97.62;100437.03;5019562;28;20099;-70
2021/11/18 08:15:34;;;;;;;12.40;7.32;;;;;;;9.09;96.77;100433.25;5021479;28;20168;-70
2021/11/18 08:18:18;;;;;;;9.93;7.05;;;;;;;9.08;96.87;100433.38;5021407;28;20560;-69
2021/11/18 08:21:06;;;;;;;10.40;6.97;;;;;;;9.14;95.76;100430.41;5021217;28;20064;-70
2021/11/18 08:23:51;;;;;;;10.73;7.40;;;;;;;9.18;95.72;100426.72;5036147;28;20466;-70
2021/11/18 08:26:36;;;;;;;12.80;7.18;;;;;;;9.27;94.86;100439.09;5021260;28;20095;-70
2021/11/18 08:29:23;;;;;;;11.20;7.25;;;;;;;9.32;94.72;100431.88;5020990;28;20438;-70
2021/11/18 08:32:07;;;;;;;10.38;7.28;;;;;;;9.35;94.46;100434.25;5007070;28;20052;-70
2021/11/18 08:34:52;;;;;;;10.93;7.18;;;;;;;9.36;94.05;100435.94;5006869;28;20060;-70
2021/11/18 08:37:35;;;;;;;13.23;7.15;;;;;;;9.30;94.16;100446.66;5007204;28;20057;-70
2021/11/18 08:40:19;;;;;;;12.82;7.07;;;;;;;9.40;93.42;100442.56;5021004;28;20110;-70
2021/11/18 08:43:05;;;;;;;9.75;6.40;;;;;;;9.44;92.20;100444.88;5020989;28;20052;-66
2021/11/18 08:45:50;;;;;;;9.98;6.85;;;;;;;9.57;91.80;100458.72;5020552;28;20465;-66
2021/11/18 08:48:35;;;;;;;9.50;6.38;;;;;;;9.59;91.51;100451.69;5007349;28;20115;-66
2021/11/18 08:51:21;;;;;;;10.05;6.68;;;;;;;10.03;90.08;100451.53;5006670;28;20063;-66
2021/11/18 08:54:08;;;;;;;11.13;6.93;;;;;;;10.00;89.70;100459.47;5020242;28;20191;-67
2021/11/18 08:56:53;;;;;;;14.73;7.15;;;;;;;10.15;88.38;100453.34;5035341;28;20132;-66
2021/11/18 08:59:38;;;;;;;11.07;6.13;;;;;;;10.07;87.60;100459.00;5035554;28;20171;-67
2021/11/18 09:02:25;;;;;;;11.20;6.60;;;;;;;10.18;87.95;100458.34;5020659;28;20102;-66
2021/11/18 09:05:09;;;;;;;13.32;7.38;;;;;;;10.46;86.69;100457.28;5020674;28;20132;-67
2021/11/18 09:07:53;;;;;;;11.00;7.15;;;;;;;10.88;84.62;100453.63;5035221;28;20060;-67
2021/11/18 09:10:37;;;;;;;11.35;6.88;;;;;;;11.29;80.84;100455.06;5006716;28;20513;-66
2021/11/18 09:13:22;;;;;;;9.23;5.88;;;;;;;11.46;79.23;100452.16;5020277;28;20133;-67
2021/11/18 09:16:06;;;;;;;10.32;6.85;;;;;;;11.57;78.83;100447.09;5006358;28;20121;-65
2021/11/18 09:18:50;;;;;;;11.48;6.80;;;;;;;11.41;78.84;100454.25;5019931;28;20284;-66
2021/11/18 09:21:35;;;;;;;10.82;6.15;;;;;;;11.57;78.50;100454.88;5020131;28;20180;-66
2021/11/18 09:24:33;;;;;;;11.70;6.60;;;;;;;12.83;73.32;100450.81;5019473;28;20052;-66
2021/11/18 09:27:21;;;;;;;9.05;6.13;;;;;;;14.17;67.49;100443.75;5019829;28;20163;-66
2021/11/18 09:30:10;;;;;;;10.23;6.22;;;;;;;15.09;63.02;100437.72;5019734;28;20098;-66
2021/11/18 09:32:56;;;;;;;10.95;6.38;;;;;;;15.57;59.24;100439.63;5034842;28;20445;-66
2021/11/18 09:35:46;;;;;;;10.20;6.63;;;;;;;15.62;58.81;100448.84;5019418;28;20048;-66
2021/11/18 09:38:32;;;;;;;8.52;5.55;;;;;;;14.08;63.23;100457.47;5005726;28;20111;-65
2021/11/18 09:41:26;;;;;;;11.23;6.32;;;;;;;13.07;69.30;100472.38;5019477;28;20052;-65
2021/11/18 09:44:28;;;;;;;11.38;6.57;;;;;;;13.08;69.73;100468.84;5034619;28;20048;-65
2021/11/18 09:47:43;;;;;;;10.18;6.65;;;;;;;12.50;71.99;100465.44;5034917;28;20419;-65
2021/11/18 09:50:46;;;;;;;;;;;;;;;12.37;73.28;100462.91;5034717;28;20517;-65
2021/11/18 09:53:48;;;;;;;10.98;7.13;;;;;;;12.13;74.33;100475.06;5034447;28;19924;-62
2021/11/18 09:57:14;;;;;;;11.95;7.47;;;;;;;12.28;74.05;100473.94;5034473;28;20532;-62
2021/11/18 10:00:16;;;;;;;;;;;;;;;11.98;74.97;100470.94;4954406;29;20117;-57
2021/11/18 10:03:03;;;;;;;12.02;7.00;;;;;;;12.01;75.53;100469.91;5033913;28;20377;-62
2021/11/18 10:05:51;;;;;;;10.85;7.13;;;;;;;11.87;75.77;100457.09;5033542;28;20048;-63
2021/11/18 10:08:48;;;;;;;12.20;6.00;;;;;;;11.88;75.17;100459.56;5033405;28;20052;-63
2021/11/18 10:11:39;;;;;;;12.40;7.55;;;;;;;11.68;76.56;100467.91;5004490;28;20479;-63
2021/11/18 10:14:44;;;;;;;13.45;8.60;;;;;;;11.66;76.95;100474.16;5033323;28;20072;-63
2021/11/18 10:17:41;;;;;;;14.73;8.88;;;;;;;11.32;78.50;100467.00;5033588;28;20048;-62
2021/11/18 10:20:32;;;;;;;15.10;8.50;;;;;;;11.44;78.46;100468.75;5018531;28;20629;-63
2021/11/18 10:23:21;;;;;;;13.55;8.52;;;;;;;11.28;78.45;100460.38;5004421;28;20044;-62
2021/11/18 10:26:11;;;;;;;13.07;8.13;;;;;;;11.20;78.94;100460.06;5033448;28;20056;-63
2021/11/18 10:29:00;;;;;;;14.32;8.40;;;;;;;11.11;79.39;100463.28;5033419;28;20053;-63
2021/11/18 10:31:52;;;;;;;13.50;8.25;;;;;;;11.17;79.50;100455.91;5033452;28;20084;-63
2021/11/18 10:34:46;;;;;;;15.55;8.85;;;;;;;11.44;78.33;100459.22;5017053;28;20072;-62
2021/11/18 10:37:30;;;;;;;15.50;9.05;;;;;;;11.44;77.66;100442.81;5004216;28;20054;-62
2021/11/18 10:40:22;;;;;;;18.85;8.35;;;;;;;11.56;77.04;100442.00;5033043;28;20510;-62
2021/11/18 10:43:06;;;;;;;14.00;9.52;;;;;;;11.58;76.93;100451.34;5033162;28;20453;-63
2021/11/18 10:46:05;;;;;;;13.93;8.95;;;;;;;11.57;76.49;100454.88;5032874;28;20063;-64
2021/11/18 10:49:12;;;;;;;12.32;8.23;;;;;;;11.25;78.07;100452.81;5017783;28;20060;-65
2021/11/18 10:52:00;;;;;;;15.90;10.25;;;;;;;11.08;79.05;100448.75;5018385;28;20048;-65
2021/11/18 10:54:48;;;;;;;13.93;8.80;;;;;;;11.11;79.78;100458.09;5018301;28;20168;-65
2021/11/18 10:57:34;;;;;;;12.80;8.57;;;;;;;11.36;78.97;100451.13;5017779;28;20179;-65
2021/11/18 11:00:42;;;;;;;16.30;9.40;;;;;;;11.45;78.11;100432.38;5017935;28;20469;-65
2021/11/18 11:03:31;;;;;;;19.35;9.93;;;;;;;11.20;79.70;100434.16;5017846;28;20055;-66
2021/11/18 11:06:16;;;;;;;18.00;8.85;;;;;;;10.99;79.37;100441.63;5017612;28;20111;-64
2021/11/18 11:09:03;;;;;;;18.63;10.13;;;;;;;11.04;80.61;100434.38;5033185;28;20052;-65
2021/11/18 11:11:52;;;;;;;16.30;10.15;;;;;;;11.19;78.38;100432.50;5018063;28;20513;-65
2021/11/18 11:14:51;;;;;;;16.23;9.93;;;;;;;11.48;77.99;100433.91;5017490;28;20056;-65
2021/11/18 11:18:07;;;;;;;16.42;9.55;;;;;;;11.42;76.57;100435.19;5033019;28;20043;-65
2021/11/18 11:21:05;;;;;;;19.83;9.65;;;;;;;11.51;76.33;100437.13;5006959;28;20529;-65
2021/11/18 11:24:28;;;;;;;16.85;9.93;;;;;;;11.14;76.81;100432.81;5017389;28;20040;-64
2021/11/18 11:27:40;;;;;;;16.52;10.25;;;;;;;11.03;78.33;100442.22;5003585;28;20047;-65
2021/11/18 11:31:03;;;;;;;17.02;10.90;;;;;;;11.08;78.24;100435.81;5032544;28;20040;-65
2021/11/18 11:34:08;;;;;;;17.45;10.60;;;;;;;10.94;78.64;100428.16;5017320;28;20060;-65
2021/11/18 11:37:05;;;;;;;19.60;11.60;;;;;;;11.05;78.32;100430.84;5032773;28;20052;-65
2021/11/18 11:39:55;;;;;;;17.27;10.88;;;;;;;11.13;77.78;100423.38;5017208;28;20084;-65
2021/11/18 11:43:18;;;;;;;17.70;10.65;;;;;;;11.36;77.71;100435.59;5017657;28;20100;-65
2021/11/18 11:46:15;;;;;;;18.92;10.77;;;;;;;11.53;76.99;100437.00;5041420;22;20048;-67
2021/11/18 11:49:24;;;;;;;17.75;11.02;;;;;;;11.40;77.36;100437.06;5035146;28;20419;-68
2021/11/18 11:52:17;;;;;;;19.52;11.40;;;;;;;11.53;76.42;100448.22;5049332;28;20464;-67
2021/11/18 11:55:04;;;;;;;24.90;12.00;;;;;;;11.60;76.07;100444.31;5035842;28;20068;-67
2021/11/18 11:58:00;;;;;;;17.48;10.60;;;;;;;11.84;75.25;100432.19;5036005;28;20052;-66
2021/11/18 12:00:57;;;;;;;20.48;11.10;;;;;;;11.91;75.59;100433.44;5035311;28;20094;-67
2021/11/18 12:04:05;;;;;;;25.17;11.68;;;;;;;11.90;74.78;100431.75;5035239;28;20044;-67
2021/11/18 12:06:57;;;;;;;24.52;12.48;;;;;;;11.81;74.08;100432.44;5036050;28;20055;-67
2021/11/18 12:10:03;;;;;;;24.23;12.57;;;;;;;11.67;74.42;100440.31;5021041;28;20088;-68
2021/11/18 12:12:56;;;;;;;20.75;12.15;;;;;;;11.39;75.25;100445.72;5034599;28;20064;-67
2021/11/18 12:15:53;;;;;;;22.03;12.43;;;;;;;11.53;75.86;100445.63;5020774;28;20133;-67
2021/11/18 12:18:48;;;;;;;21.80;11.95;;;;;;;11.71;75.08;100443.53;5034680;28;20044;-67
2021/11/18 12:21:32;;;;;;;24.30;12.52;;;;;;;11.65;75.13;100434.44;5034672;28;20057;-67
2021/11/18 12:24:18;;;;;;;22.27;12.70;;;;;;;11.39;74.59;100437.97;5034404;28;20048;-67
2021/11/18 12:27:12;;;;;;;20.90;12.13;;;;;;;11.49;75.20;100435.56;5034233;28;20048;-67
2021/11/18 12:30:14;;;;;;;21.58;12.32;;;;;;;11.66;74.55;100425.72;5035279;28;20549;-66
2021/11/18 12:33:08;;;;;;;20.58;12.13;;;;;;;11.56;75.06;100423.84;5035443;28;20049;-67
2021/11/18 12:36:20;;;;;;;20.90;12.25;;;;;;;11.56;74.99;100422.06;5034286;28;20099;-66
2021/11/18 12:39:28;;;;;;;21.48;12.13;;;;;;;11.42;75.17;100422.22;5020649;28;20410;-67
2021/11/18 12:42:24;;;;;;;21.75;12.13;;;;;;;11.63;75.04;100418.16;5034096;28;20382;-67
2021/11/18 12:45:33;;;;;;;21.63;12.23;;;;;;;11.66;74.57;100420.53;5035419;28;20044;-64
2021/11/18 12:48:17;;;;;;;22.02;12.15;;;;;;;11.72;74.52;100417.50;5034244;28;20146;-66
2021/11/18 12:51:32;;;;;;;22.23;12.18;;;;;;;11.57;73.92;100413.38;5034204;28;20048;-66
2021/11/18 12:54:24;;;;;;;;;;;;;;;11.44;74.31;100415.16;5035308;28;20095;-66
2021/11/18 12:57:25;;;;;;;19.95;11.70;;;;;;;11.45;75.47;100416.00;5033841;28;20002;-67
2021/11/18 13:00:48;;;;;;;20.85;11.50;;;;;;;11.54;75.51;100417.91;5034072;28;20514;-66
2021/11/18 13:03:50;;;;;;;22.30;11.73;;;;;;;11.47;74.80;100407.16;5033913;28;20064;-66